Farmersville, California
Current Conditions -  °F | °C
As of 6:35 AM on Tuesday 27 Jan 2015 (Local Time) from KVIS Reporting Station
Overcast Overcast  
Wind Chill: 52°   Ceiling: 6000
Heat Index: 52°   Visibility: 2.5mi
Dew Point: 46°   Wind: 5mph
Humidity: 82%   Direction: 40°NE
Pressure: 30.17"   Gusts: NA
Location:  36.3°N, 119.2°W
Report Text: KVIS 271435Z AUTO 04004KT 2 1/2SM OVC060 11/08 A3017 RMK AO1
Loading
Personal Weather Stations






























Interactive Weather Map New forecast layout! Learn more

10-Day Weather Forecast

Advertisements
Track Severe Weather on mobile